Time;durP1;ratioP1;P1;durP2;ratioP2;P2;SDS_P1;SDS_P2;PMS_P1;PMS_P2;Temp;Humidity;BMP_temperature;BMP_pressure;BME280_temperature;BME280_humidity;BME280_pressure;Samples;Min_cycle;Max_cycle;Signal;HPM_P1;HPM_P2
2023/08/29 04:01:05;;;;;;;5.33;4.90;;;12.90;99.90;;;;;;6093688;23;20298;-67
2023/08/29 04:03:32;;;;;;;7.17;5.63;;;12.90;99.90;;;;;;6154185;23;20746;-67
2023/08/29 04:05:58;;;;;;;5.73;5.07;;;12.90;99.90;;;;;;6151125;23;20431;-68
2023/08/29 04:08:25;;;;;;;6.22;5.50;;;12.90;99.90;;;;;;6152963;23;20961;-69
2023/08/29 04:10:52;;;;;;;6.65;5.47;;;12.90;99.90;;;;;;6153337;23;20859;-68
2023/08/29 04:13:18;;;;;;;8.20;5.93;;;12.90;99.90;;;;;;6154092;23;20191;-68
2023/08/29 04:15:46;;;;;;;7.57;5.03;;;12.80;99.90;;;;;;6154214;23;20819;-69
2023/08/29 04:18:14;;;;;;;5.72;5.22;;;12.90;99.90;;;;;;6154225;23;20182;-68
2023/08/29 04:20:41;;;;;;;5.93;5.30;;;12.80;99.90;;;;;;6152995;23;20223;-68
2023/08/29 04:23:07;;;;;;;7.03;6.25;;;12.80;99.90;;;;;;6154097;23;20429;-68
2023/08/29 04:25:36;;;;;;;9.85;7.28;;;12.80;99.90;;;;;;6154147;23;20210;-67
2023/08/29 04:28:03;;;;;;;8.68;5.97;;;12.80;99.90;;;;;;6153470;23;20200;-67
2023/08/29 04:30:30;;;;;;;8.75;6.20;;;12.80;99.90;;;;;;6153735;23;20207;-67
2023/08/29 04:32:58;;;;;;;7.00;6.33;;;12.80;99.90;;;;;;6151940;23;20186;-67
2023/08/29 04:35:26;;;;;;;6.30;5.50;;;12.80;99.90;;;;;;6151720;23;20423;-68
2023/08/29 04:37:54;;;;;;;8.70;6.23;;;12.80;99.90;;;;;;6153163;23;20784;-69
2023/08/29 04:40:21;;;;;;;7.63;5.63;;;12.70;99.90;;;;;;6153653;23;20891;-71
2023/08/29 04:42:48;;;;;;;7.40;6.30;;;12.70;99.90;;;;;;6153754;23;20418;-67
2023/08/29 04:45:15;;;;;;;7.27;6.20;;;12.80;99.90;;;;;;6154005;23;20426;-67
2023/08/29 04:47:42;;;;;;;8.87;5.17;;;12.80;99.90;;;;;;6152964;23;20450;-67
2023/08/29 04:50:09;;;;;;;6.70;6.10;;;12.80;99.90;;;;;;6153212;23;20442;-66
2023/08/29 04:52:37;;;;;;;6.70;6.03;;;12.90;99.90;;;;;;6152494;23;20418;-68
2023/08/29 04:55:05;;;;;;;6.57;4.90;;;12.90;99.90;;;;;;6153427;23;20430;-67
2023/08/29 04:57:33;;;;;;;5.93;5.43;;;12.90;99.90;;;;;;6153464;23;20750;-66
2023/08/29 05:00:00;;;;;;;7.23;6.43;;;13.00;99.90;;;;;;6153352;23;20426;-69
2023/08/29 05:02:27;;;;;;;9.05;6.72;;;13.00;99.90;;;;;;6151782;23;20450;-67
2023/08/29 05:04:54;;;;;;;5.60;5.07;;;13.10;99.90;;;;;;6153361;23;20184;-67
2023/08/29 05:07:21;;;;;;;6.37;5.70;;;13.10;99.90;;;;;;6153447;23;20724;-67
2023/08/29 05:09:49;;;;;;;8.10;6.33;;;13.20;99.90;;;;;;6152688;23;20446;-67
2023/08/29 05:12:16;;;;;;;7.77;5.70;;;13.20;99.90;;;;;;6153553;23;20442;-67
2023/08/29 05:14:42;;;;;;;6.87;4.90;;;13.20;99.90;;;;;;6152312;23;20426;-66
2023/08/29 05:17:09;;;;;;;5.87;5.33;;;13.30;99.90;;;;;;6152762;23;20930;-67
2023/08/29 05:19:36;;;;;;;5.80;5.30;;;13.30;99.90;;;;;;6152769;23;20415;-69
2023/08/29 05:22:03;;;;;;;5.73;5.10;;;13.40;99.90;;;;;;6153428;23;20443;-67
2023/08/29 05:24:30;;;;;;;5.83;5.23;;;13.40;99.90;;;;;;6153429;23;20422;-68
2023/08/29 05:26:58;;;;;;;6.20;4.60;;;13.40;99.90;;;;;;6153283;23;20419;-67
2023/08/29 05:29:25;;;;;;;4.40;4.10;;;13.40;99.90;;;;;;6152149;23;20447;-67
2023/08/29 05:31:51;;;;;;;9.73;5.00;;;13.50;99.90;;;;;;6152996;23;20464;-67
2023/08/29 05:34:18;;;;;;;4.63;4.27;;;13.50;99.90;;;;;;6152844;23;20419;-69
2023/08/29 05:36:46;;;;;;;5.67;5.17;;;13.60;99.90;;;;;;6153367;23;20430;-68
2023/08/29 05:39:13;;;;;;;5.03;4.70;;;13.60;99.90;;;;;;6153390;23;20415;-67
2023/08/29 05:41:40;;;;;;;3.93;3.67;;;13.70;99.90;;;;;;6153942;23;20517;-67
2023/08/29 05:44:08;;;;;;;6.83;4.87;;;13.70;99.90;;;;;;6152894;23;20418;-68
2023/08/29 05:46:35;;;;;;;4.30;3.90;;;13.80;99.90;;;;;;6153221;23;20899;-67
2023/08/29 05:49:01;;;;;;;4.13;3.83;;;13.90;99.90;;;;;;6154733;23;20771;-68
2023/08/29 05:51:28;;;;;;;5.00;4.60;;;13.90;99.90;;;;;;6154375;23;20438;-68
2023/08/29 05:53:55;;;;;;;4.50;4.10;;;14.00;99.90;;;;;;6150945;23;20429;-67
2023/08/29 05:56:21;;;;;;;4.80;4.30;;;14.00;99.90;;;;;;6155426;23;20623;-71
2023/08/29 05:58:48;;;;;;;4.57;4.20;;;14.00;99.90;;;;;;6180724;23;20402;-69
2023/08/29 06:01:16;;;;;;;10.63;4.30;;;14.10;99.90;;;;;;6177212;23;20439;-70
2023/08/29 06:03:43;;;;;;;4.13;3.93;;;14.10;99.90;;;;;;6159338;23;20418;-70
2023/08/29 06:06:10;;;;;;;6.00;5.13;;;14.30;99.90;;;;;;6154308;23;20419;-70
2023/08/29 06:08:37;;;;;;;9.40;4.13;;;14.30;99.90;;;;;;6152675;23;20501;-71
2023/08/29 06:11:04;;;;;;;4.67;4.20;;;14.40;99.90;;;;;;6153144;23;20505;-70
2023/08/29 06:13:30;;;;;;;4.60;4.30;;;14.40;99.90;;;;;;6154054;23;20747;-72
2023/08/29 06:15:57;;;;;;;5.73;4.47;;;14.40;99.90;;;;;;6152145;23;20430;-72
2023/08/29 06:18:25;;;;;;;4.70;4.30;;;14.40;99.90;;;;;;6152688;23;20431;-70
2023/08/29 06:20:52;;;;;;;5.57;5.07;;;14.40;99.90;;;;;;6152655;23;20451;-70
2023/08/29 06:23:18;;;;;;;5.57;5.07;;;14.40;99.90;;;;;;6150994;23;20425;-71
2023/08/29 06:25:45;;;;;;;4.83;4.43;;;14.40;99.90;;;;;;6152944;23;20474;-72
2023/08/29 06:28:12;;;;;;;4.30;4.10;;;14.40;99.90;;;;;;6152087;23;20453;-71
2023/08/29 06:30:39;;;;;;;4.53;4.23;;;14.50;99.90;;;;;;6153093;23;20445;-71
2023/08/29 06:33:07;;;;;;;4.73;4.43;;;14.60;99.90;;;;;;6152933;23;20477;-72
2023/08/29 06:35:38;;;;;;;4.33;4.00;;;14.60;99.90;;;;;;6152684;23;20423;-71
2023/08/29 06:38:06;;;;;;;5.20;4.50;;;14.60;99.90;;;;;;6153448;23;20553;-71
2023/08/29 06:40:32;;;;;;;4.83;4.53;;;14.70;99.90;;;;;;6153047;23;20443;-71
2023/08/29 06:42:59;;;;;;;6.23;4.37;;;14.80;99.90;;;;;;6152804;23;20426;-71
2023/08/29 06:45:26;;;;;;;4.50;4.20;;;14.90;99.90;;;;;;6152784;23;20426;-70
2023/08/29 06:47:53;;;;;;;4.50;4.30;;;14.90;99.90;;;;;;6153565;23;20438;-71
2023/08/29 06:50:19;;;;;;;4.10;3.30;;;15.00;99.90;;;;;;6151405;23;20447;-71
2023/08/29 06:52:47;;;;;;;4.30;4.00;;;15.00;99.90;;;;;;6153624;23;20427;-70
2023/08/29 06:55:15;;;;;;;3.53;3.33;;;15.10;99.90;;;;;;6151915;23;20419;-71
2023/08/29 06:57:41;;;;;;;3.40;3.10;;;15.20;99.90;;;;;;6153498;23;20751;-70
2023/08/29 07:00:11;;;;;;;2.93;2.83;;;15.30;99.90;;;;;;6153869;23;20438;-70
2023/08/29 07:02:37;;;;;;;3.00;2.80;;;15.20;99.90;;;;;;6152610;23;20784;-71
2023/08/29 07:05:05;;;;;;;3.30;3.10;;;15.30;99.90;;;;;;6151001;23;20414;-70
2023/08/29 07:07:32;;;;;;;4.00;3.70;;;15.40;99.90;;;;;;6152826;23;20455;-70
2023/08/29 07:10:00;;;;;;;2.73;2.63;;;15.40;99.90;;;;;;6153535;23;20768;-71
2023/08/29 07:12:26;;;;;;;3.73;3.50;;;15.50;99.90;;;;;;6152878;23;20447;-71
2023/08/29 07:14:53;;;;;;;3.00;2.90;;;15.50;99.90;;;;;;6152837;23;20418;-70
2023/08/29 07:17:20;;;;;;;3.67;3.50;;;15.50;99.90;;;;;;6155234;23;20418;-71
2023/08/29 07:19:46;;;;;;;3.80;3.50;;;15.50;99.90;;;;;;6154937;23;20418;-71
2023/08/29 07:22:13;;;;;;;3.33;3.13;;;15.50;99.90;;;;;;6156591;23;20450;-70
2023/08/29 07:24:40;;;;;;;3.87;3.67;;;15.50;99.90;;;;;;6156156;23;20473;-71
2023/08/29 07:27:08;;;;;;;5.10;3.67;;;15.50;99.90;;;;;;6156399;23;20696;-71
2023/08/29 07:29:35;;;;;;;3.97;3.77;;;15.50;99.90;;;;;;6154313;23;20442;-70
2023/08/29 07:32:01;;;;;;;4.33;4.10;;;15.50;99.90;;;;;;6154891;23;20446;-71
2023/08/29 07:34:28;;;;;;;3.87;3.40;;;15.50;99.90;;;;;;6155385;23;20429;-70
2023/08/29 07:36:55;;;;;;;5.00;4.20;;;15.60;99.90;;;;;;6154551;23;20419;-70
2023/08/29 07:39:24;;;;;;;3.87;3.67;;;15.60;99.90;;;;;;6150875;23;20415;-71
2023/08/29 07:41:50;;;;;;;4.50;4.10;;;15.50;99.90;;;;;;6152030;23;20507;-71
2023/08/29 07:44:18;;;;;;;4.10;3.90;;;15.50;99.90;;;;;;6153374;23;20899;-71
2023/08/29 07:46:45;;;;;;;4.03;3.80;;;15.50;99.90;;;;;;6153506;23;20425;-70
2023/08/29 07:49:14;;;;;;;3.97;3.67;;;15.50;99.90;;;;;;6154557;23;20450;-71
2023/08/29 07:51:40;;;;;;;4.30;4.00;;;15.50;99.90;;;;;;6154017;23;20497;-70
2023/08/29 07:54:07;;;;;;;6.10;4.33;;;15.50;99.90;;;;;;6155136;23;20426;-69
2023/08/29 07:56:34;;;;;;;4.40;4.10;;;15.50;99.90;;;;;;6156538;23;20426;-71
2023/08/29 07:59:00;;;;;;;4.37;4.07;;;15.50;99.90;;;;;;6155848;23;20931;-70
2023/08/29 08:01:28;;;;;;;4.80;4.40;;;15.50;99.90;;;;;;6155439;23;20469;-69
2023/08/29 08:03:55;;;;;;;4.93;4.63;;;15.60;99.90;;;;;;6156042;23;20418;-70
2023/08/29 08:06:22;;;;;;;4.80;4.40;;;15.70;99.90;;;;;;6156383;23;20418;-70
2023/08/29 08:08:49;;;;;;;4.33;3.93;;;15.70;99.90;;;;;;6156128;23;20540;-68
2023/08/29 08:11:15;;;;;;;4.40;4.10;;;15.70;99.90;;;;;;6154915;23;20444;-70
2023/08/29 08:13:42;;;;;;;4.23;3.87;;;15.80;99.90;;;;;;6152473;23;20845;-70
2023/08/29 08:16:09;;;;;;;5.27;4.87;;;15.80;99.90;;;;;;6154696;23;20450;-69
2023/08/29 08:18:37;;;;;;;4.30;3.90;;;15.70;99.90;;;;;;6154295;23;20419;-69
2023/08/29 08:21:05;;;;;;;4.73;4.40;;;15.70;99.90;;;;;;6154173;23;20438;-71
2023/08/29 08:23:32;;;;;;;4.87;4.43;;;15.70;99.90;;;;;;6155960;23;20475;-71
2023/08/29 08:25:59;;;;;;;4.83;4.53;;;15.80;99.90;;;;;;6165756;23;20513;-71
2023/08/29 08:28:25;;;;;;;5.40;5.00;;;15.80;99.90;;;;;;6151177;23;20441;-68
2023/08/29 08:30:52;;;;;;;5.53;5.03;;;15.80;99.90;;;;;;6152868;23;20454;-69
2023/08/29 08:33:19;;;;;;;4.53;4.23;;;15.90;99.90;;;;;;6153332;23;20473;-70
2023/08/29 08:35:47;;;;;;;5.07;4.63;;;15.90;99.90;;;;;;6153039;23;20430;-69
2023/08/29 08:38:13;;;;;;;5.47;4.10;;;16.00;99.90;;;;;;6153955;23;20423;-69
2023/08/29 08:40:41;;;;;;;4.20;3.90;;;16.10;99.90;;;;;;6154457;23;20444;-69
2023/08/29 08:43:10;;;;;;;4.50;4.20;;;16.20;99.90;;;;;;6159120;23;21011;-68
2023/08/29 08:45:38;;;;;;;3.80;3.40;;;16.30;99.90;;;;;;6159923;23;20424;-70
2023/08/29 08:48:06;;;;;;;4.03;3.70;;;16.50;99.90;;;;;;6157827;23;20435;-70
2023/08/29 08:50:33;;;;;;;3.30;3.10;;;16.50;99.90;;;;;;6151321;23;20450;-70
2023/08/29 08:53:03;;;;;;;4.03;3.73;;;16.70;99.90;;;;;;6153044;23;20427;-69
2023/08/29 08:55:31;;;;;;;2.80;2.70;;;16.80;99.90;;;;;;6154358;23;20474;-70
2023/08/29 08:57:57;;;;;;;3.67;3.47;;;16.90;99.90;;;;;;6153432;23;20432;-70
2023/08/29 09:00:25;;;;;;;3.43;3.33;;;17.00;99.90;;;;;;6153223;23;20418;-70
2023/08/29 09:02:53;;;;;;;3.50;3.20;;;17.20;99.90;;;;;;6152556;23;20874;-70
2023/08/29 09:05:21;;;;;;;4.50;4.10;;;17.30;99.90;;;;;;6153051;23;20421;-70
2023/08/29 09:07:48;;;;;;;4.00;3.73;;;17.30;99.90;;;;;;6154787;23;20421;-70
2023/08/29 09:10:17;;;;;;;3.77;3.53;;;17.40;99.90;;;;;;6154625;23;20594;-69
2023/08/29 09:12:48;;;;;;;4.20;3.90;;;17.50;99.90;;;;;;6153479;23;20782;-70
2023/08/29 09:15:16;;;;;;;4.10;3.73;;;17.60;99.90;;;;;;6148476;23;20492;-70
2023/08/29 09:17:46;;;;;;;4.00;3.60;;;17.60;99.90;;;;;;6152706;23;20805;-69
2023/08/29 09:20:13;;;;;;;2.80;2.70;;;17.70;99.90;;;;;;6152719;23;20399;-69
2023/08/29 09:22:42;;;;;;;2.03;2.03;;;17.70;99.90;;;;;;6181055;23;20489;-70
2023/08/29 09:25:09;;;;;;;2.80;2.70;;;17.90;99.90;;;;;;6178051;23;20446;-67
2023/08/29 09:27:41;;;;;;;4.50;2.53;;;17.90;99.90;;;;;;6154802;23;20517;-71
2023/08/29 09:30:10;;;;;;;2.77;2.57;;;17.90;99.90;;;;;;6153565;23;20434;-70
2023/08/29 09:32:37;;;;;;;3.33;2.50;;;17.80;99.90;;;;;;6151244;23;20444;-69
2023/08/29 09:35:05;;;;;;;2.43;2.40;;;17.90;99.90;;;;;;6148559;23;20748;-68
2023/08/29 09:37:32;;;;;;;3.10;2.90;;;18.10;99.90;;;;;;6153465;23;20441;-71
2023/08/29 09:40:01;;;;;;;4.43;2.10;;;18.20;99.90;;;;;;6152868;23;20533;-69
2023/08/29 09:42:29;;;;;;;3.00;2.67;;;18.30;99.90;;;;;;6150217;23;20448;-69
2023/08/29 09:44:57;;;;;;;2.37;2.27;;;18.40;99.90;;;;;;6153642;23;20426;-70
2023/08/29 09:47:24;;;;;;;2.30;2.27;;;18.40;99.90;;;;;;6153824;23;20419;-70
2023/08/29 09:49:51;;;;;;;2.63;2.60;;;18.50;99.90;;;;;;6153028;23;20450;-71
2023/08/29 09:52:19;;;;;;;2.70;2.60;;;18.60;99.90;;;;;;6150965;23;20439;-70
2023/08/29 09:54:48;;;;;;;2.33;2.33;;;18.70;99.90;;;;;;6152794;23;20446;-69
2023/08/29 09:57:18;;;;;;;2.20;2.20;;;18.80;99.90;;;;;;6154290;23;20425;-71
2023/08/29 09:59:45;;;;;;;2.27;2.27;;;18.80;99.90;;;;;;6151319;23;20422;-71
2023/08/29 10:02:18;;;;;;;2.80;2.70;;;18.60;99.90;;;;;;6150439;23;20454;-71
2023/08/29 10:04:48;;;;;;;2.60;2.50;;;18.40;99.90;;;;;;6152388;23;20437;-71
2023/08/29 10:07:16;;;;;;;1.90;1.90;;;18.60;99.90;;;;;;6153878;23;20416;-71
2023/08/29 10:09:44;;;;;;;1.50;1.50;;;18.80;99.90;;;;;;6152935;23;20501;-70
2023/08/29 10:12:12;;;;;;;2.00;2.00;;;19.00;99.90;;;;;;6149113;23;20443;-70
2023/08/29 10:14:40;;;;;;;2.00;1.90;;;19.10;99.90;;;;;;6152684;23;20418;-70
2023/08/29 10:17:08;;;;;;;1.60;1.60;;;19.20;99.90;;;;;;6153780;23;20721;-69
2023/08/29 10:19:38;;;;;;;1.70;1.60;;;19.40;99.90;;;;;;6152118;23;20504;-70
2023/08/29 10:22:07;;;;;;;1.90;1.80;;;19.40;99.90;;;;;;6152577;23;20446;-70
2023/08/29 10:24:35;;;;;;;1.50;1.50;;;19.20;99.90;;;;;;6150284;23;20429;-70
2023/08/29 10:27:02;;;;;;;2.90;2.80;;;19.20;99.90;;;;;;6149496;23;20428;-71
2023/08/29 10:29:29;;;;;;;1.87;1.77;;;19.30;99.90;;;;;;6152608;23;20516;-70
2023/08/29 10:31:57;;;;;;;2.00;2.00;;;19.50;99.90;;;;;;6150077;23;20453;-71
2023/08/29 10:34:27;;;;;;;2.63;2.03;;;19.60;99.90;;;;;;6151153;23;20419;-71
2023/08/29 10:36:56;;;;;;;1.40;1.40;;;19.70;99.90;;;;;;6149914;23;20412;-69
2023/08/29 10:39:24;;;;;;;1.53;1.53;;;19.90;99.90;;;;;;6152048;23;20422;-69
2023/08/29 10:44:40;;;;;;;1.80;1.70;;;19.90;99.90;;;;;;6149200;23;20428;-68
2023/08/29 10:47:21;;;;;;;1.20;1.20;;;20.00;99.90;;;;;;6151156;23;20404;-68
2023/08/29 10:49:48;;;;;;;1.73;1.73;;;20.00;99.90;;;;;;6151829;23;20433;-69
2023/08/29 10:52:20;;;;;;;1.30;1.30;;;19.90;99.90;;;;;;6149655;23;20445;-71
2023/08/29 10:54:47;;;;;;;3.93;1.10;;;19.90;99.90;;;;;;6148188;23;20495;-70
2023/08/29 10:57:27;;;;;;;1.87;1.43;;;19.90;99.90;;;;;;6149157;23;20480;-70
2023/08/29 10:59:54;;;;;;;4.00;1.40;;;20.00;99.90;;;;;;6151012;23;20418;-70
2023/08/29 11:02:26;;;;;;;1.30;1.30;;;19.90;99.90;;;;;;6151563;23;20445;-70
2023/08/29 11:04:54;;;;;;;1.23;0.93;;;19.90;99.90;;;;;;6150984;23;20761;-70
2023/08/29 11:07:26;;;;;;;1.10;1.10;;;19.90;99.90;;;;;;6153216;23;20445;-70
2023/08/29 11:10:12;;;;;;;1.00;1.00;;;19.90;99.90;;;;;;6152451;23;20442;-71
2023/08/29 11:13:07;;;;;;;1.33;1.33;;;20.00;99.90;;;;;;6152574;23;20445;-70
2023/08/29 11:16:17;;;;;;;1.83;1.73;;;20.00;99.90;;;;;;6151899;23;20426;-71
2023/08/29 11:18:44;;;;;;;0.70;0.70;;;20.10;99.90;;;;;;6152629;23;20404;-70
2023/08/29 11:21:10;;;;;;;1.50;1.50;;;20.20;99.90;;;;;;6152306;23;20720;-71
2023/08/29 11:23:40;;;;;;;1.20;1.20;;;20.30;99.90;;;;;;6152284;23;20442;-70
2023/08/29 11:26:08;;;;;;;1.00;1.00;;;20.20;99.90;;;;;;6153055;23;20420;-70
2023/08/29 11:28:39;;;;;;;0.70;0.70;;;20.20;99.90;;;;;;6151532;23;20738;-70
2023/08/29 11:31:06;;;;;;;1.03;1.03;;;20.30;99.90;;;;;;6148908;23;20500;-69
2023/08/29 11:33:34;;;;;;;1.23;1.20;;;20.30;99.90;;;;;;6149300;23;20512;-69
2023/08/29 11:36:02;;;;;;;1.03;1.03;;;20.40;99.90;;;;;;6149868;23;20428;-70
2023/08/29 11:38:30;;;;;;;1.50;1.50;;;20.40;99.90;;;;;;6148391;23;20426;-69
2023/08/29 11:40:59;;;;;;;1.03;1.03;;;20.40;99.90;;;;;;6148949;23;20421;-70
2023/08/29 11:43:27;;;;;;;1.10;1.10;;;20.50;99.90;;;;;;6149183;23;20450;-69
2023/08/29 11:45:57;;;;;;;0.90;0.90;;;20.60;99.90;;;;;;6150020;23;20443;-69
2023/08/29 11:48:25;;;;;;;0.93;0.93;;;20.70;99.90;;;;;;6148437;23;20509;-69
2023/08/29 11:50:55;;;;;;;0.90;0.90;;;20.80;99.90;;;;;;6147160;23;20448;-70
2023/08/29 11:53:23;;;;;;;0.90;0.90;;;20.70;99.90;;;;;;6148599;23;20960;-69
2023/08/29 11:55:51;;;;;;;1.00;1.00;;;20.70;99.90;;;;;;6150096;23;20433;-69
2023/08/29 11:58:19;;;;;;;1.10;1.10;;;20.70;99.90;;;;;;6148539;23;20422;-69
2023/08/29 12:00:48;;;;;;;0.80;0.80;;;20.80;99.90;;;;;;6150764;23;20422;-69
2023/08/29 12:03:19;;;;;;;0.60;0.60;;;20.70;99.90;;;;;;6151850;23;20452;-69
2023/08/29 12:05:46;;;;;;;1.13;1.10;;;20.80;99.90;;;;;;6153837;23;20410;-71
2023/08/29 12:08:12;;;;;;;2.20;0.87;;;20.90;99.90;;;;;;6153637;23;20422;-70
2023/08/29 12:10:50;;;;;;;0.73;0.73;;;20.80;99.90;;;;;;6153059;23;20443;-70
2023/08/29 12:13:17;;;;;;;0.80;0.80;;;20.90;99.90;;;;;;6150854;23;20441;-70
2023/08/29 12:15:45;;;;;;;0.57;0.57;;;20.90;99.90;;;;;;6150508;23;20449;-70
2023/08/29 12:18:21;;;;;;;0.87;0.87;;;20.90;99.90;;;;;;6152468;23;20417;-70
2023/08/29 12:20:48;;;;;;;0.83;0.83;;;21.00;99.90;;;;;;6152733;23;20782;-70
2023/08/29 12:23:25;;;;;;;0.83;0.83;;;21.00;99.90;;;;;;6153823;23;20977;-70
2023/08/29 12:25:51;;;;;;;1.07;1.07;;;20.80;99.90;;;;;;6152636;23;20405;-70
2023/08/29 12:28:18;;;;;;;2.63;0.87;;;20.70;99.90;;;;;;6152597;23;20422;-69
2023/08/29 12:30:46;;;;;;;0.80;0.80;;;20.80;99.90;;;;;;6152653;23;20445;-69
2023/08/29 12:33:13;;;;;;;2.40;1.10;;;20.70;99.90;;;;;;6152044;23;20880;-69
2023/08/29 12:35:39;;;;;;;1.60;0.80;;;20.80;99.90;;;;;;6151429;23;20420;-69
2023/08/29 12:38:06;;;;;;;0.97;0.97;;;21.00;99.90;;;;;;6152021;23;20425;-69
2023/08/29 12:40:36;;;;;;;0.60;0.60;;;21.00;99.90;;;;;;6152389;23;20418;-69
2023/08/29 12:43:03;;;;;;;0.63;0.63;;;21.00;99.90;;;;;;6150766;23;20553;-69
2023/08/29 12:45:30;;;;;;;0.80;0.80;;;21.10;99.90;;;;;;6152298;23;20461;-70
2023/08/29 12:47:58;;;;;;;0.87;0.87;;;21.10;99.90;;;;;;6152586;23;20762;-69
2023/08/29 12:50:24;;;;;;;0.73;0.70;;;21.20;99.90;;;;;;6152549;23;20454;-69
2023/08/29 12:52:51;;;;;;;0.80;0.80;;;21.30;99.90;;;;;;6153539;23;20442;-69
2023/08/29 12:55:18;;;;;;;0.97;0.97;;;21.30;99.90;;;;;;6153429;23;20501;-70
2023/08/29 12:57:46;;;;;;;1.23;1.23;;;21.30;99.90;;;;;;6151153;23;21271;-70
2023/08/29 13:00:14;;;;;;;1.70;1.70;;;21.30;99.90;;;;;;6152666;23;20760;-69
2023/08/29 13:02:41;;;;;;;0.87;0.87;;;21.40;99.90;;;;;;6151225;23;20446;-69
2023/08/29 13:05:09;;;;;;;0.73;0.73;;;21.40;99.90;;;;;;6153737;23;20422;-70
2023/08/29 13:07:36;;;;;;;0.70;0.70;;;21.40;99.90;;;;;;6155466;23;20419;-69
2023/08/29 13:10:05;;;;;;;0.90;0.90;;;21.40;99.90;;;;;;6152738;23;20426;-69
2023/08/29 13:12:31;;;;;;;0.73;0.73;;;21.40;99.90;;;;;;6152612;23;20818;-69
2023/08/29 13:14:58;;;;;;;1.00;1.00;;;21.40;99.90;;;;;;6153729;23;20430;-69
2023/08/29 13:17:25;;;;;;;0.80;0.80;;;21.60;99.90;;;;;;6150977;23;20468;-68
2023/08/29 13:19:52;;;;;;;1.30;1.17;;;21.70;99.90;;;;;;6150735;23;20423;-68
2023/08/29 13:22:20;;;;;;;0.50;0.50;;;21.80;99.90;;;;;;6152680;23;20438;-70
2023/08/29 13:24:46;;;;;;;1.07;0.63;;;21.80;99.90;;;;;;6152374;23;20430;-70
2023/08/29 13:27:13;;;;;;;0.70;0.70;;;21.80;99.90;;;;;;6153714;23;20531;-70
2023/08/29 13:29:39;;;;;;;1.23;1.23;;;21.70;99.90;;;;;;6151349;23;20418;-70
2023/08/29 13:32:06;;;;;;;0.83;0.83;;;21.60;99.90;;;;;;6151932;23;20455;-70
2023/08/29 13:34:34;;;;;;;1.27;0.83;;;21.60;99.90;;;;;;6152535;23;20437;-70
2023/08/29 13:37:01;;;;;;;0.70;0.70;;;21.60;99.90;;;;;;6154057;23;20508;-70
2023/08/29 13:39:29;;;;;;;0.73;0.60;;;21.40;99.90;;;;;;6152647;23;20787;-70
2023/08/29 13:41:56;;;;;;;0.90;0.60;;;21.30;99.90;;;;;;6151467;23;20469;-70
2023/08/29 13:44:23;;;;;;;5.03;0.90;;;21.30;99.90;;;;;;6150861;23;20436;-70
2023/08/29 13:46:49;;;;;;;0.70;0.70;;;21.30;99.90;;;;;;6153725;23;20463;-70
2023/08/29 13:49:16;;;;;;;0.50;0.50;;;21.30;99.90;;;;;;6153208;23;20422;-70
2023/08/29 13:51:43;;;;;;;1.00;1.00;;;21.30;99.90;;;;;;6151499;23;20455;-70
2023/08/29 13:54:10;;;;;;;0.60;0.60;;;21.20;99.90;;;;;;6151643;23;21164;-70
2023/08/29 13:56:38;;;;;;;0.70;0.70;;;21.10;99.90;;;;;;6148731;23;20410;-70
2023/08/29 13:59:05;;;;;;;0.57;0.57;;;21.00;99.90;;;;;;6151641;23;20426;-70
2023/08/29 14:01:31;;;;;;;0.80;0.80;;;20.80;99.90;;;;;;6151032;23;20422;-70
2023/08/29 14:03:58;;;;;;;1.63;0.63;;;20.60;99.90;;;;;;6151712;23;21144;-70
2023/08/29 14:06:25;;;;;;;1.40;1.30;;;20.70;99.90;;;;;;6150528;23;20419;-70
2023/08/29 14:08:51;;;;;;;0.87;0.87;;;20.70;99.90;;;;;;6148458;23;20430;-70
2023/08/29 14:11:19;;;;;;;0.63;0.63;;;20.70;99.90;;;;;;6152284;23;20958;-70
2023/08/29 14:13:47;;;;;;;0.70;0.70;;;20.70;99.90;;;;;;6152419;23;20486;-70
2023/08/29 14:16:13;;;;;;;0.73;0.73;;;20.80;99.90;;;;;;6153225;23;20430;-69
2023/08/29 14:18:42;;;;;;;0.80;0.80;;;20.70;99.90;;;;;;6152394;23;20822;-70
2023/08/29 14:21:09;;;;;;;0.83;0.83;;;20.70;99.90;;;;;;6150056;23;20498;-69
2023/08/29 14:23:36;;;;;;;0.80;0.80;;;20.70;99.90;;;;;;6153229;23;20913;-70
2023/08/29 14:26:03;;;;;;;0.80;0.80;;;20.70;99.90;;;;;;6148439;23;20422;-69
2023/08/29 14:28:29;;;;;;;1.10;1.10;;;20.60;99.90;;;;;;6149294;23;20419;-69
2023/08/29 14:30:57;;;;;;;1.20;1.20;;;20.60;99.90;;;;;;6147356;23;20446;-69
2023/08/29 14:33:24;;;;;;;1.37;1.37;;;20.60;99.90;;;;;;6151669;23;20946;-70
2023/08/29 14:35:55;;;;;;;0.93;0.93;;;20.60;99.90;;;;;;6151870;23;20421;-70
2023/08/29 14:38:22;;;;;;;1.30;1.30;;;20.60;99.90;;;;;;6153383;23;20406;-70
2023/08/29 14:40:48;;;;;;;1.23;1.23;;;20.50;99.90;;;;;;6152312;23;20425;-70
2023/08/29 14:43:15;;;;;;;2.10;1.10;;;20.40;99.90;;;;;;6150638;23;20777;-69
2023/08/29 14:45:43;;;;;;;1.17;1.00;;;20.30;99.90;;;;;;6149572;23;20425;-69
2023/08/29 14:48:12;;;;;;;1.20;1.20;;;20.40;99.90;;;;;;6152476;23;20425;-69
2023/08/29 14:50:43;;;;;;;1.30;1.30;;;20.40;99.90;;;;;;6151817;23;20518;-69
2023/08/29 14:53:10;;;;;;;0.90;0.90;;;20.40;99.90;;;;;;6153777;23;20443;-70
2023/08/29 14:55:37;;;;;;;1.17;1.17;;;20.50;99.90;;;;;;6152335;23;20427;-70
2023/08/29 14:58:04;;;;;;;2.83;1.23;;;20.50;99.90;;;;;;6152165;23;20525;-69
2023/08/29 15:00:32;;;;;;;1.30;1.30;;;20.50;99.90;;;;;;6153399;23;20534;-70
2023/08/29 15:02:58;;;;;;;1.10;1.10;;;20.50;99.90;;;;;;6153691;23;20473;-70
2023/08/29 15:05:28;;;;;;;1.00;1.00;;;20.60;99.90;;;;;;6153445;23;20519;-70
2023/08/29 15:07:55;;;;;;;0.80;0.80;;;20.60;99.90;;;;;;6150477;23;20421;-69
2023/08/29 15:10:22;;;;;;;1.30;1.30;;;20.50;99.90;;;;;;6151965;23;20502;-69
2023/08/29 15:12:48;;;;;;;1.03;1.03;;;20.60;99.90;;;;;;6152069;23;21000;-70
2023/08/29 15:15:15;;;;;;;1.07;1.00;;;20.60;99.90;;;;;;6153129;23;20420;-70
2023/08/29 15:17:42;;;;;;;0.97;0.97;;;20.60;99.90;;;;;;6152882;23;20507;-69
2023/08/29 15:20:10;;;;;;;1.10;1.10;;;20.70;99.90;;;;;;6152364;23;20431;-70
2023/08/29 15:22:38;;;;;;;0.90;0.90;;;20.70;99.90;;;;;;6152584;23;20944;-69
2023/08/29 15:25:08;;;;;;;1.30;1.30;;;20.70;99.90;;;;;;6153239;23;20404;-69
2023/08/29 15:27:35;;;;;;;1.20;1.20;;;20.70;99.90;;;;;;6153991;23;20412;-69
2023/08/29 15:30:04;;;;;;;0.93;0.93;;;20.70;99.90;;;;;;6152886;23;20935;-69
2023/08/29 15:32:31;;;;;;;1.00;1.00;;;20.70;99.90;;;;;;6151563;23;20819;-69
2023/08/29 15:34:58;;;;;;;1.20;1.20;;;20.60;99.90;;;;;;6153278;23;20463;-69
2023/08/29 15:37:25;;;;;;;2.00;2.00;;;20.60;99.90;;;;;;6154134;23;20423;-70
2023/08/29 15:39:53;;;;;;;1.47;1.47;;;20.60;99.90;;;;;;6154694;23;20519;-70
2023/08/29 15:42:20;;;;;;;1.50;1.50;;;20.60;99.90;;;;;;6155059;23;20440;-70
2023/08/29 15:44:46;;;;;;;1.70;1.60;;;20.50;99.90;;;;;;6155142;23;20411;-70
2023/08/29 15:47:14;;;;;;;1.37;1.37;;;20.40;99.90;;;;;;6155256;23;20422;-70
2023/08/29 15:49:40;;;;;;;1.33;1.33;;;20.30;99.90;;;;;;6152728;23;20421;-69
2023/08/29 15:52:07;;;;;;;1.27;1.27;;;20.30;99.90;;;;;;6156222;23;20447;-69
2023/08/29 15:54:34;;;;;;;1.37;1.37;;;20.30;99.90;;;;;;6155655;23;20433;-69
2023/08/29 15:57:02;;;;;;;1.53;1.53;;;20.40;99.90;;;;;;6155501;23;20753;-69
2023/08/29 15:59:28;;;;;;;2.50;2.40;;;20.30;99.90;;;;;;6154621;23;20421;-69
2023/08/29 16:01:57;;;;;;;1.60;1.60;;;20.30;99.90;;;;;;6155913;23;20415;-70
2023/08/29 16:04:23;;;;;;;1.97;1.87;;;20.30;99.90;;;;;;6154588;23;20755;-69
2023/08/29 16:06:50;;;;;;;1.50;1.50;;;20.20;99.90;;;;;;6154222;23;20526;-69
2023/08/29 16:09:17;;;;;;;1.17;1.17;;;20.10;99.90;;;;;;6153814;23;20432;-69
2023/08/29 16:11:44;;;;;;;2.43;1.67;;;20.10;99.90;;;;;;6154456;23;20458;-69
2023/08/29 16:14:12;;;;;;;2.80;2.20;;;20.00;99.90;;;;;;6155011;23;20441;-69
2023/08/29 16:16:39;;;;;;;1.70;1.70;;;19.90;99.90;;;;;;6154557;23;20521;-69
2023/08/29 16:19:05;;;;;;;1.60;1.60;;;19.90;99.90;;;;;;6154427;23;20425;-69
2023/08/29 16:21:32;;;;;;;1.37;1.37;;;19.90;99.90;;;;;;6153858;23;20416;-69
2023/08/29 16:23:59;;;;;;;1.40;1.40;;;19.90;99.90;;;;;;6154352;23;20443;-69
2023/08/29 16:26:26;;;;;;;1.60;1.60;;;19.80;99.90;;;;;;6154881;23;20403;-69
2023/08/29 16:28:52;;;;;;;1.60;1.60;;;19.80;99.90;;;;;;6154594;23;20766;-69
2023/08/29 16:31:20;;;;;;;1.67;1.67;;;19.80;99.90;;;;;;6153778;23;20453;-69
2023/08/29 16:33:48;;;;;;;1.50;1.50;;;19.80;99.90;;;;;;6154123;23;20763;-69
2023/08/29 16:36:14;;;;;;;2.20;2.10;;;19.70;99.90;;;;;;6153764;23;20412;-69
2023/08/29 16:38:41;;;;;;;2.83;2.70;;;19.70;99.90;;;;;;6153629;23;20422;-69
2023/08/29 16:41:08;;;;;;;2.80;2.80;;;19.60;99.90;;;;;;6154227;23;20415;-69
2023/08/29 16:43:34;;;;;;;2.30;2.20;;;19.70;99.90;;;;;;6153755;23;20466;-72
2023/08/29 16:46:01;;;;;;;1.80;1.80;;;19.70;99.90;;;;;;6154253;23;20940;-74
2023/08/29 16:48:29;;;;;;;1.80;1.80;;;19.60;99.90;;;;;;6154673;23;20446;-73
2023/08/29 16:50:56;;;;;;;1.70;1.40;;;19.60;99.90;;;;;;6152964;23;20881;-73
2023/08/29 16:53:24;;;;;;;1.40;1.40;;;19.60;99.90;;;;;;6153778;23;21035;-72